LGSALGIR

Guest
Details From LGSA - Khania Souda
To LGIR - Iraklion - Nizos Kazantzakis
Flight Number -
Tags Routegen Generated
Created
Modified
Stats Distance 50 nm / 92 km
Max Altitude 100 ft / 30 m
Waypoints 5
Social Downloads 10
Likes 0
Share VATSIM

Download

Looking for another format? Having issues loading an existing format? Contact us
Advertisement - Login to hide

Notes

Departing runway 11 LGSA. Arriving runway 9 LGIR.

Route

LGSA +35.50_+024.25 +35.42_+024.66 +35.35_+025.07 LGIR

ID Type Via Altitude Latitude Longitude Leg Dist Tot Dist Heading (true) Name
O LGSA APT - 0 ft / 0 m 35.52611˚ 24.16838˚ - 0 nm - -
+35.50_+024.25 LATLON - 100 ft / 30 m 35.49965˚ 24.25112˚ 4 nm 4 nm 111° / 111° -
+35.42_+024.66 LATLON - 100 ft / 30 m 35.42339˚ 24.66195˚ 20 nm 24 nm 103° / 103° -
+35.35_+025.07 LATLON - 100 ft / 30 m 35.34714˚ 25.07278˚ 20 nm 45 nm 103° / 103° -
O LGIR APT - 0 ft / 0 m 35.34104˚ 25.16118˚ 4 nm 49 nm 95° / 95° -

Altitude Profile

Advertisement - Login to hide

LGSA

Details ICAO LGSA (CHQ)
Name Khania Souda
Region Greece
Timezone Europe/Athens (UTC+2.0)
Stats Elevation 490 ft / 149 m (AMSL)
Location 35.531592° 24.151184°
Runways 1
Magnetic Variation 4.282° E

METAR

LGSA 140020Z 27021KT 9999 FEW025 15/12 Q1019

Decode

TAF

TAF LGSA 132300Z 1400/1424 26023KT 9999 FEW025 TEMPO 1400/1412 SCT025

Decode

Departure Runways

ID Width Length Bearing (true) Bearing (mag) Surface Threshold Offset Overrun Length
11 148 ft / 45 m 10,967 ft / 3,343 m 111.40° 107.12° Asphalt 0 ft / 0 m 735 ft / 224 m
29 148 ft / 45 m 10,967 ft / 3,343 m 291.42° 287.14° Asphalt 0 ft / 0 m 900 ft / 274 m

LGIR

Details ICAO LGIR (HER)
Name Iraklion - Nizos Kazantzakis
Region Greece
Timezone Europe/Athens (UTC+2.0)
Stats Elevation 115 ft / 35 m (AMSL)
Location 35.339487° 25.180120°
Runways 3
Magnetic Variation 4.379° E

METAR

LGIR 140020Z 16011KT 9999 FEW025 11/09 Q1019 NOSIG

Decode

TAF

TAF LGIR 132300Z 1400/1424 17010KT 9999 FEW020 BECMG 1408/1410 29013KT

Decode

Destination Runways

ID Width Length Bearing (true) Bearing (mag) Surface Threshold Offset Overrun Length
09 148 ft / 45 m 8,755 ft / 2,669 m 94.84° 90.46° Asphalt 1,565 ft / 477 m 200 ft / 61 m
12 164 ft / 50 m 5,136 ft / 1,566 m 126.27° 121.89° Asphalt 499 ft / 152 m 190 ft / 58 m
18 131 ft / 40 m 2,607 ft / 795 m 180.40° 176.02° Asphalt 0 ft / 0 m 0 ft / 0 m
27 148 ft / 45 m 8,755 ft / 2,669 m 274.86° 270.48° Asphalt 0 ft / 0 m 210 ft / 64 m
30 164 ft / 50 m 5,136 ft / 1,566 m 306.28° 301.90° Asphalt 0 ft / 0 m 0 ft / 0 m
36 131 ft / 40 m 2,607 ft / 795 m 0.40° 356.02° Asphalt 328 ft / 100 m 0 ft / 0 m

Popular Alternatives